sensor_id;sensor_type;location;lat;lon;timestamp;pressure;altitude;pressure_sealevel;temperature;humidity
72428;BME280;60419;48.880;18.036;2023-10-31T00:01:31;97752.66;;;17.52;49.04
72428;BME280;60419;48.880;18.036;2023-10-31T00:04:17;97748.78;;;17.61;48.91
72428;BME280;60419;48.880;18.036;2023-10-31T00:07:02;97745.59;;;17.48;49.29
72428;BME280;60419;48.880;18.036;2023-10-31T00:09:48;97729.56;;;17.35;49.31
72428;BME280;60419;48.880;18.036;2023-10-31T00:12:33;97716.81;;;17.65;48.50
72428;BME280;60419;48.880;18.036;2023-10-31T00:15:19;97715.59;;;17.51;48.63
72428;BME280;60419;48.880;18.036;2023-10-31T00:18:04;97715.69;;;17.69;48.04
72428;BME280;60419;48.880;18.036;2023-10-31T00:20:50;97697.28;;;17.55;48.32
72428;BME280;60419;48.880;18.036;2023-10-31T00:23:42;97688.38;;;17.69;48.21
72428;BME280;60419;48.880;18.036;2023-10-31T00:26:28;97684.47;;;17.70;48.43
72428;BME280;60419;48.880;18.036;2023-10-31T00:29:13;97674.75;;;17.76;48.42
72428;BME280;60419;48.880;18.036;2023-10-31T00:31:59;97675.16;;;17.75;48.24
72428;BME280;60419;48.880;18.036;2023-10-31T00:34:45;97653.31;;;17.78;47.85
72428;BME280;60419;48.880;18.036;2023-10-31T00:37:30;97649.78;;;17.74;48.03
72428;BME280;60419;48.880;18.036;2023-10-31T00:40:15;97639.13;;;17.37;48.80
72428;BME280;60419;48.880;18.036;2023-10-31T00:43:01;97656.22;;;17.23;49.29
72428;BME280;60419;48.880;18.036;2023-10-31T00:45:47;97650.78;;;17.30;49.54
72428;BME280;60419;48.880;18.036;2023-10-31T00:48:33;97642.66;;;17.48;48.72
72428;BME280;60419;48.880;18.036;2023-10-31T00:51:21;97625.91;;;17.53;48.73
72428;BME280;60419;48.880;18.036;2023-10-31T00:54:06;97626.56;;;17.14;50.07
72428;BME280;60419;48.880;18.036;2023-10-31T00:56:52;97618.38;;;17.18;50.07
72428;BME280;60419;48.880;18.036;2023-10-31T00:59:37;97624.69;;;17.36;49.69
72428;BME280;60419;48.880;18.036;2023-10-31T01:02:24;97617.72;;;17.53;49.18
72428;BME280;60419;48.880;18.036;2023-10-31T01:05:10;97608.75;;;17.60;48.93
72428;BME280;60419;48.880;18.036;2023-10-31T01:07:56;97614.97;;;17.46;49.24
72428;BME280;60419;48.880;18.036;2023-10-31T01:10:41;97624.63;;;17.22;50.40
72428;BME280;60419;48.880;18.036;2023-10-31T01:13:27;97628.22;;;17.41;50.03
72428;BME280;60419;48.880;18.036;2023-10-31T01:16:12;97614.09;;;17.21;50.51
72428;BME280;60419;48.880;18.036;2023-10-31T01:18:57;97625.06;;;17.31;50.30
72428;BME280;60419;48.880;18.036;2023-10-31T01:21:43;97629.34;;;17.32;50.00
72428;BME280;60419;48.880;18.036;2023-10-31T01:24:29;97606.22;;;16.98;50.85
72428;BME280;60419;48.880;18.036;2023-10-31T01:27:14;97600.06;;;17.15;50.62
72428;BME280;60419;48.880;18.036;2023-10-31T01:29:59;97591.09;;;17.22;51.08
72428;BME280;60419;48.880;18.036;2023-10-31T01:32:45;97593.88;;;17.32;50.52
72428;BME280;60419;48.880;18.036;2023-10-31T01:35:30;97589.59;;;17.31;50.74
72428;BME280;60419;48.880;18.036;2023-10-31T01:38:15;97585.16;;;16.98;51.42
72428;BME280;60419;48.880;18.036;2023-10-31T01:41:01;97578.28;;;17.40;50.46
72428;BME280;60419;48.880;18.036;2023-10-31T01:43:46;97571.97;;;17.11;51.28
72428;BME280;60419;48.880;18.036;2023-10-31T01:46:32;97569.69;;;17.20;50.94
72428;BME280;60419;48.880;18.036;2023-10-31T01:49:17;97559.94;;;17.23;50.86
72428;BME280;60419;48.880;18.036;2023-10-31T01:52:04;97547.41;;;17.07;51.58
72428;BME280;60419;48.880;18.036;2023-10-31T01:54:49;97545.94;;;17.39;50.98
72428;BME280;60419;48.880;18.036;2023-10-31T01:57:34;97548.56;;;16.99;51.94
72428;BME280;60419;48.880;18.036;2023-10-31T02:00:20;97542.03;;;17.25;51.43
72428;BME280;60419;48.880;18.036;2023-10-31T02:03:06;97538.91;;;17.34;51.29
72428;BME280;60419;48.880;18.036;2023-10-31T02:05:52;97538.50;;;17.25;51.47
72428;BME280;60419;48.880;18.036;2023-10-31T02:08:39;97538.06;;;17.08;51.95
72428;BME280;60419;48.880;18.036;2023-10-31T02:11:25;97519.00;;;17.15;51.71
72428;BME280;60419;48.880;18.036;2023-10-31T02:14:10;97522.53;;;17.20;51.73
72428;BME280;60419;48.880;18.036;2023-10-31T02:16:55;97524.47;;;17.26;51.76
72428;BME280;60419;48.880;18.036;2023-10-31T02:19:41;97531.84;;;17.15;52.52
72428;BME280;60419;48.880;18.036;2023-10-31T02:22:26;97534.19;;;17.09;51.95
72428;BME280;60419;48.880;18.036;2023-10-31T02:25:17;97525.63;;;17.14;51.77
72428;BME280;60419;48.880;18.036;2023-10-31T02:28:03;97523.72;;;17.33;51.56
72428;BME280;60419;48.880;18.036;2023-10-31T02:30:48;97516.31;;;17.41;50.95
72428;BME280;60419;48.880;18.036;2023-10-31T02:33:37;97526.06;;;17.42;50.92
72428;BME280;60419;48.880;18.036;2023-10-31T02:36:23;97508.84;;;17.16;51.09
72428;BME280;60419;48.880;18.036;2023-10-31T02:39:08;97523.72;;;17.44;50.98
72428;BME280;60419;48.880;18.036;2023-10-31T02:41:54;97526.41;;;17.29;51.37
72428;BME280;60419;48.880;18.036;2023-10-31T02:44:39;97526.06;;;17.56;50.04
72428;BME280;60419;48.880;18.036;2023-10-31T02:47:24;97535.44;;;17.41;50.39
72428;BME280;60419;48.880;18.036;2023-10-31T02:50:10;97527.25;;;17.55;50.21
72428;BME280;60419;48.880;18.036;2023-10-31T02:52:55;97524.09;;;17.42;50.46
72428;BME280;60419;48.880;18.036;2023-10-31T02:55:41;97507.38;;;17.62;50.05
72428;BME280;60419;48.880;18.036;2023-10-31T02:58:26;97487.84;;;17.63;50.66
72428;BME280;60419;48.880;18.036;2023-10-31T03:01:11;97483.94;;;17.50;51.16
72428;BME280;60419;48.880;18.036;2023-10-31T03:03:57;97485.13;;;17.49;51.68
72428;BME280;60419;48.880;18.036;2023-10-31T03:06:42;97478.47;;;17.32;52.20
72428;BME280;60419;48.880;18.036;2023-10-31T03:09:28;97462.91;;;17.54;52.06
72428;BME280;60419;48.880;18.036;2023-10-31T03:12:13;97459.38;;;17.32;52.42
72428;BME280;60419;48.880;18.036;2023-10-31T03:14:58;97463.25;;;17.17;52.40
72428;BME280;60419;48.880;18.036;2023-10-31T03:17:44;97445.22;;;16.76;52.94
72428;BME280;60419;48.880;18.036;2023-10-31T03:20:29;97458.94;;;17.01;52.32
72428;BME280;60419;48.880;18.036;2023-10-31T03:23:14;97457.78;;;17.13;52.35
72428;BME280;60419;48.880;18.036;2023-10-31T03:26:00;97458.97;;;17.15;51.93
72428;BME280;60419;48.880;18.036;2023-10-31T03:28:45;97469.81;;;16.87;52.70
72428;BME280;60419;48.880;18.036;2023-10-31T03:31:31;97461.56;;;16.76;52.43
72428;BME280;60419;48.880;18.036;2023-10-31T03:34:16;97461.69;;;17.15;51.17
72428;BME280;60419;48.880;18.036;2023-10-31T03:37:02;97454.66;;;17.11;50.76
72428;BME280;60419;48.880;18.036;2023-10-31T03:39:47;97442.56;;;16.98;50.41
72428;BME280;60419;48.880;18.036;2023-10-31T03:42:32;97468.72;;;17.27;50.42
72428;BME280;60419;48.880;18.036;2023-10-31T03:45:18;97450.78;;;17.30;50.10
72428;BME280;60419;48.880;18.036;2023-10-31T03:48:03;97462.06;;;17.03;50.69
72428;BME280;60419;48.880;18.036;2023-10-31T03:50:49;97466.00;;;17.20;50.26
72428;BME280;60419;48.880;18.036;2023-10-31T03:53:35;97463.28;;;17.52;49.76
72428;BME280;60419;48.880;18.036;2023-10-31T03:56:21;97462.91;;;17.36;50.11
72428;BME280;60419;48.880;18.036;2023-10-31T03:59:06;97469.06;;;17.01;51.25
72428;BME280;60419;48.880;18.036;2023-10-31T04:01:51;97464.78;;;17.00;51.91
72428;BME280;60419;48.880;18.036;2023-10-31T04:04:37;97462.31;;;16.66;53.21
72428;BME280;60419;48.880;18.036;2023-10-31T04:07:22;97419.47;;;16.63;52.96
72428;BME280;60419;48.880;18.036;2023-10-31T04:10:08;97444.00;;;16.70;52.82
72428;BME280;60419;48.880;18.036;2023-10-31T04:12:53;97431.16;;;16.67;52.32
72428;BME280;60419;48.880;18.036;2023-10-31T04:15:39;97431.19;;;16.74;52.75
72428;BME280;60419;48.880;18.036;2023-10-31T04:18:24;97456.53;;;16.78;52.83
72428;BME280;60419;48.880;18.036;2023-10-31T04:21:10;97439.69;;;16.58;53.56
72428;BME280;60419;48.880;18.036;2023-10-31T04:23:55;97460.97;;;16.24;55.09
72428;BME280;60419;48.880;18.036;2023-10-31T04:26:40;97459.47;;;16.34;56.10
72428;BME280;60419;48.880;18.036;2023-10-31T04:29:26;97455.06;;;16.15;56.21
72428;BME280;60419;48.880;18.036;2023-10-31T04:32:11;97467.38;;;15.91;57.69
72428;BME280;60419;48.880;18.036;2023-10-31T04:34:57;97476.56;;;15.75;58.34
72428;BME280;60419;48.880;18.036;2023-10-31T04:37:42;97481.00;;;15.50;60.67
72428;BME280;60419;48.880;18.036;2023-10-31T04:40:28;97406.34;;;14.95;62.15
72428;BME280;60419;48.880;18.036;2023-10-31T04:43:13;97467.16;;;15.21;62.97
72428;BME280;60419;48.880;18.036;2023-10-31T04:45:59;97449.34;;;14.86;65.25
72428;BME280;60419;48.880;18.036;2023-10-31T04:48:44;97443.63;;;14.65;65.51
72428;BME280;60419;48.880;18.036;2023-10-31T04:51:36;97456.47;;;14.68;66.17
72428;BME280;60419;48.880;18.036;2023-10-31T04:54:22;97449.56;;;14.70;65.10
72428;BME280;60419;48.880;18.036;2023-10-31T04:57:07;97460.44;;;14.74;64.17
72428;BME280;60419;48.880;18.036;2023-10-31T04:59:53;97469.03;;;14.76;64.26
72428;BME280;60419;48.880;18.036;2023-10-31T05:02:39;97491.28;;;14.85;63.72
72428;BME280;60419;48.880;18.036;2023-10-31T05:05:25;97491.63;;;14.84;64.23
72428;BME280;60419;48.880;18.036;2023-10-31T05:08:10;97499.03;;;14.87;64.18
72428;BME280;60419;48.880;18.036;2023-10-31T05:10:56;97492.63;;;15.06;63.93
72428;BME280;60419;48.880;18.036;2023-10-31T05:13:42;97484.09;;;14.70;63.80
72428;BME280;60419;48.880;18.036;2023-10-31T05:16:27;97484.09;;;14.70;63.87
72428;BME280;60419;48.880;18.036;2023-10-31T05:19:12;97488.13;;;14.83;63.25
72428;BME280;60419;48.880;18.036;2023-10-31T05:21:58;97489.56;;;14.73;63.22
72428;BME280;60419;48.880;18.036;2023-10-31T05:24:43;97489.13;;;15.05;61.61
72428;BME280;60419;48.880;18.036;2023-10-31T05:27:29;97498.50;;;14.74;62.81
72428;BME280;60419;48.880;18.036;2023-10-31T05:30:14;97505.31;;;14.91;62.42
72428;BME280;60419;48.880;18.036;2023-10-31T05:32:59;97514.59;;;14.90;62.34
72428;BME280;60419;48.880;18.036;2023-10-31T05:35:45;97512.09;;;14.74;62.73
72428;BME280;60419;48.880;18.036;2023-10-31T05:38:30;97520.56;;;14.69;63.01
72428;BME280;60419;48.880;18.036;2023-10-31T05:41:16;97523.50;;;14.87;62.36
72428;BME280;60419;48.880;18.036;2023-10-31T05:44:01;97542.66;;;14.67;63.44
72428;BME280;60419;48.880;18.036;2023-10-31T05:46:47;97524.78;;;14.66;63.45
72428;BME280;60419;48.880;18.036;2023-10-31T05:49:32;97528.00;;;14.72;62.97
72428;BME280;60419;48.880;18.036;2023-10-31T05:52:17;97531.78;;;14.67;61.93
72428;BME280;60419;48.880;18.036;2023-10-31T05:55:03;97528.91;;;14.83;61.34
72428;BME280;60419;48.880;18.036;2023-10-31T05:57:48;97544.56;;;14.93;61.32
72428;BME280;60419;48.880;18.036;2023-10-31T06:00:34;97530.91;;;14.90;60.55
72428;BME280;60419;48.880;18.036;2023-10-31T06:03:20;97536.09;;;14.99;60.29
72428;BME280;60419;48.880;18.036;2023-10-31T06:06:06;97539.19;;;15.01;59.98
72428;BME280;60419;48.880;18.036;2023-10-31T06:08:51;97534.13;;;14.99;59.87
72428;BME280;60419;48.880;18.036;2023-10-31T06:11:40;97536.16;;;14.72;60.57
72428;BME280;60419;48.880;18.036;2023-10-31T06:14:26;97532.75;;;14.82;60.18
72428;BME280;60419;48.880;18.036;2023-10-31T06:17:12;97546.13;;;14.64;60.93
72428;BME280;60419;48.880;18.036;2023-10-31T06:19:57;97548.97;;;15.05;59.26
72428;BME280;60419;48.880;18.036;2023-10-31T06:22:43;97546.22;;;15.39;58.77
72428;BME280;60419;48.880;18.036;2023-10-31T06:25:29;97549.47;;;15.14;59.14
72428;BME280;60419;48.880;18.036;2023-10-31T06:28:15;97541.41;;;14.88;58.61
72428;BME280;60419;48.880;18.036;2023-10-31T06:31:00;97560.28;;;15.11;58.17
72428;BME280;60419;48.880;18.036;2023-10-31T06:33:46;97549.34;;;15.04;57.71
72428;BME280;60419;48.880;18.036;2023-10-31T06:36:32;97566.16;;;15.50;57.26
72428;BME280;60419;48.880;18.036;2023-10-31T06:39:17;97558.25;;;15.38;57.16
72428;BME280;60419;48.880;18.036;2023-10-31T06:42:03;97564.81;;;15.33;56.57
72428;BME280;60419;48.880;18.036;2023-10-31T06:44:48;97581.47;;;15.66;55.83
72428;BME280;60419;48.880;18.036;2023-10-31T06:47:33;97580.31;;;15.29;57.10
72428;BME280;60419;48.880;18.036;2023-10-31T06:50:19;97584.91;;;15.59;55.86
72428;BME280;60419;48.880;18.036;2023-10-31T06:53:04;97600.69;;;15.43;56.58
72428;BME280;60419;48.880;18.036;2023-10-31T06:55:49;97593.72;;;15.82;55.80
72428;BME280;60419;48.880;18.036;2023-10-31T06:58:35;97608.66;;;15.66;60.59
72428;BME280;60419;48.880;18.036;2023-10-31T07:01:20;97613.06;;;15.74;55.90
72428;BME280;60419;48.880;18.036;2023-10-31T07:04:06;97610.50;;;15.92;55.71
72428;BME280;60419;48.880;18.036;2023-10-31T07:06:51;97628.03;;;15.94;55.54
72428;BME280;60419;48.880;18.036;2023-10-31T07:09:42;97620.94;;;15.82;55.88
72428;BME280;60419;48.880;18.036;2023-10-31T07:12:27;97626.38;;;15.82;56.09
72428;BME280;60419;48.880;18.036;2023-10-31T07:15:13;97632.28;;;15.92;56.03
72428;BME280;60419;48.880;18.036;2023-10-31T07:17:58;97634.88;;;16.18;55.44
72428;BME280;60419;48.880;18.036;2023-10-31T07:20:44;97646.97;;;16.24;55.33
72428;BME280;60419;48.880;18.036;2023-10-31T07:23:29;97653.25;;;16.80;55.61
72428;BME280;60419;48.880;18.036;2023-10-31T07:26:14;97661.63;;;16.54;56.71
72428;BME280;60419;48.880;18.036;2023-10-31T07:29:00;97662.50;;;16.65;61.07
72428;BME280;60419;48.880;18.036;2023-10-31T07:31:46;97663.91;;;17.00;55.64
72428;BME280;60419;48.880;18.036;2023-10-31T07:34:31;97653.13;;;17.28;54.59
72428;BME280;60419;48.880;18.036;2023-10-31T07:37:16;97668.38;;;16.70;55.63
72428;BME280;60419;48.880;18.036;2023-10-31T07:40:02;97667.53;;;16.15;57.34
72428;BME280;60419;48.880;18.036;2023-10-31T07:42:49;97680.94;;;15.59;59.23
72428;BME280;60419;48.880;18.036;2023-10-31T07:45:34;97679.97;;;14.84;60.89
72428;BME280;60419;48.880;18.036;2023-10-31T07:48:20;97685.22;;;14.70;61.72
72428;BME280;60419;48.880;18.036;2023-10-31T07:51:06;97684.72;;;14.64;61.62
72428;BME280;60419;48.880;18.036;2023-10-31T07:53:51;97683.13;;;14.63;62.03
72428;BME280;60419;48.880;18.036;2023-10-31T07:56:37;97676.75;;;14.75;61.45
72428;BME280;60419;48.880;18.036;2023-10-31T07:59:23;97695.31;;;14.69;61.92
72428;BME280;60419;48.880;18.036;2023-10-31T08:02:08;97698.66;;;14.63;62.56
72428;BME280;60419;48.880;18.036;2023-10-31T08:04:53;97702.81;;;14.80;61.97
72428;BME280;60419;48.880;18.036;2023-10-31T08:07:39;97700.50;;;14.59;62.82
72428;BME280;60419;48.880;18.036;2023-10-31T08:10:24;97697.88;;;14.62;62.85
72428;BME280;60419;48.880;18.036;2023-10-31T08:13:10;97709.66;;;14.70;62.59
72428;BME280;60419;48.880;18.036;2023-10-31T08:15:55;97706.03;;;14.39;63.18
72428;BME280;60419;48.880;18.036;2023-10-31T08:18:40;97717.03;;;14.46;63.13
72428;BME280;60419;48.880;18.036;2023-10-31T08:21:27;97729.41;;;14.44;63.30
72428;BME280;60419;48.880;18.036;2023-10-31T08:24:18;97733.34;;;14.46;63.06
72428;BME280;60419;48.880;18.036;2023-10-31T08:27:04;97741.81;;;14.45;63.29
72428;BME280;60419;48.880;18.036;2023-10-31T08:29:49;97749.72;;;14.53;63.36
72428;BME280;60419;48.880;18.036;2023-10-31T08:32:35;97753.25;;;14.54;63.31
72428;BME280;60419;48.880;18.036;2023-10-31T08:35:20;97747.13;;;14.38;64.37
72428;BME280;60419;48.880;18.036;2023-10-31T08:38:05;97758.88;;;14.65;63.58
72428;BME280;60419;48.880;18.036;2023-10-31T08:40:51;97744.63;;;14.71;62.82
72428;BME280;60419;48.880;18.036;2023-10-31T08:43:36;97743.28;;;14.39;63.37
72428;BME280;60419;48.880;18.036;2023-10-31T08:46:22;97755.66;;;14.82;62.87
72428;BME280;60419;48.880;18.036;2023-10-31T08:49:07;97752.28;;;14.89;62.56
72428;BME280;60419;48.880;18.036;2023-10-31T08:51:52;97752.16;;;15.08;62.27
72428;BME280;60419;48.880;18.036;2023-10-31T08:54:38;97756.78;;;15.04;62.03
72428;BME280;60419;48.880;18.036;2023-10-31T08:57:23;97769.69;;;15.11;62.49
72428;BME280;60419;48.880;18.036;2023-10-31T09:00:09;97778.88;;;15.29;62.20
72428;BME280;60419;48.880;18.036;2023-10-31T09:02:54;97776.22;;;15.63;60.85
72428;BME280;60419;48.880;18.036;2023-10-31T09:05:40;97776.59;;;15.92;60.36
72428;BME280;60419;48.880;18.036;2023-10-31T09:08:25;97754.69;;;16.15;60.72
72428;BME280;60419;48.880;18.036;2023-10-31T09:11:11;97761.28;;;16.51;59.68
72428;BME280;60419;48.880;18.036;2023-10-31T09:13:56;97752.22;;;16.40;59.59
72428;BME280;60419;48.880;18.036;2023-10-31T09:16:42;97745.47;;;16.71;57.67
72428;BME280;60419;48.880;18.036;2023-10-31T09:19:27;97750.63;;;16.80;57.59
72428;BME280;60419;48.880;18.036;2023-10-31T09:22:13;97738.50;;;16.29;59.11
72428;BME280;60419;48.880;18.036;2023-10-31T09:24:58;97728.91;;;16.46;59.78
72428;BME280;60419;48.880;18.036;2023-10-31T09:27:44;97734.78;;;16.48;58.72
72428;BME280;60419;48.880;18.036;2023-10-31T09:30:29;97715.00;;;16.58;58.31
72428;BME280;60419;48.880;18.036;2023-10-31T09:33:15;97725.50;;;16.15;58.68
72428;BME280;60419;48.880;18.036;2023-10-31T09:36:00;97738.16;;;15.97;59.28
72428;BME280;60419;48.880;18.036;2023-10-31T09:38:46;97754.72;;;15.51;61.33
72428;BME280;60419;48.880;18.036;2023-10-31T09:41:32;97743.25;;;16.02;59.61
72428;BME280;60419;48.880;18.036;2023-10-31T09:44:17;97731.38;;;16.17;58.26
72428;BME280;60419;48.880;18.036;2023-10-31T09:47:03;97701.31;;;16.10;59.14
72428;BME280;60419;48.880;18.036;2023-10-31T09:49:48;97712.88;;;16.82;57.65
72428;BME280;60419;48.880;18.036;2023-10-31T09:52:35;97726.47;;;16.78;57.54
72428;BME280;60419;48.880;18.036;2023-10-31T09:55:22;97729.00;;;16.57;56.35
72428;BME280;60419;48.880;18.036;2023-10-31T09:58:08;97732.97;;;16.63;56.49
72428;BME280;60419;48.880;18.036;2023-10-31T10:00:53;97730.34;;;16.33;57.62
72428;BME280;60419;48.880;18.036;2023-10-31T10:03:40;97707.03;;;16.39;57.90
72428;BME280;60419;48.880;18.036;2023-10-31T10:06:26;97711.38;;;16.43;57.59
72428;BME280;60419;48.880;18.036;2023-10-31T10:09:11;97708.50;;;16.77;56.88
72428;BME280;60419;48.880;18.036;2023-10-31T10:11:59;97712.66;;;17.08;56.28
72428;BME280;60419;48.880;18.036;2023-10-31T10:14:45;97717.56;;;16.40;57.39
72428;BME280;60419;48.880;18.036;2023-10-31T10:17:32;97717.38;;;16.63;58.02
72428;BME280;60419;48.880;18.036;2023-10-31T10:20:18;97695.06;;;16.50;58.41
72428;BME280;60419;48.880;18.036;2023-10-31T10:23:04;97717.72;;;16.58;58.82
72428;BME280;60419;48.880;18.036;2023-10-31T10:25:50;97695.66;;;16.78;58.20
72428;BME280;60419;48.880;18.036;2023-10-31T10:28:36;97698.38;;;16.26;59.12
72428;BME280;60419;48.880;18.036;2023-10-31T10:31:23;97708.50;;;16.77;57.48
72428;BME280;60419;48.880;18.036;2023-10-31T10:34:09;97687.22;;;16.42;57.98
72428;BME280;60419;48.880;18.036;2023-10-31T10:36:55;97704.69;;;15.96;60.19
72428;BME280;60419;48.880;18.036;2023-10-31T10:39:43;97666.84;;;16.25;59.02
72428;BME280;60419;48.880;18.036;2023-10-31T10:42:33;97695.41;;;16.42;58.58
72428;BME280;60419;48.880;18.036;2023-10-31T10:45:19;97688.50;;;16.55;58.30
72428;BME280;60419;48.880;18.036;2023-10-31T10:48:11;97679.84;;;16.42;58.64
72428;BME280;60419;48.880;18.036;2023-10-31T10:50:57;97687.41;;;16.67;58.33
72428;BME280;60419;48.880;18.036;2023-10-31T10:53:48;97683.41;;;16.50;58.46
72428;BME280;60419;48.880;18.036;2023-10-31T10:56:38;97686.97;;;16.61;58.46
72428;BME280;60419;48.880;18.036;2023-10-31T10:59:39;97677.75;;;16.77;57.93
72428;BME280;60419;48.880;18.036;2023-10-31T11:02:27;97665.78;;;16.88;57.80
72428;BME280;60419;48.880;18.036;2023-10-31T11:05:14;97671.88;;;16.75;58.24
72428;BME280;60419;48.880;18.036;2023-10-31T11:08:01;97670.22;;;17.18;56.99
72428;BME280;60419;48.880;18.036;2023-10-31T11:10:48;97668.72;;;17.35;56.64
72428;BME280;60419;48.880;18.036;2023-10-31T11:13:35;97680.38;;;17.25;57.28
72428;BME280;60419;48.880;18.036;2023-10-31T11:16:26;97676.66;;;16.85;59.53
72428;BME280;60419;48.880;18.036;2023-10-31T11:19:15;97677.06;;;16.83;60.39
72428;BME280;60419;48.880;18.036;2023-10-31T11:22:01;97679.19;;;17.22;59.35
72428;BME280;60419;48.880;18.036;2023-10-31T11:24:50;97678.91;;;17.38;59.10
72428;BME280;60419;48.880;18.036;2023-10-31T11:27:36;97676.50;;;17.26;60.25
72428;BME280;60419;48.880;18.036;2023-10-31T11:33:13;97664.81;;;17.32;60.44
72428;BME280;60419;48.880;18.036;2023-10-31T11:36:00;97669.53;;;17.39;60.85
72428;BME280;60419;48.880;18.036;2023-10-31T11:38:46;97662.88;;;15.78;66.48
72428;BME280;60419;48.880;18.036;2023-10-31T11:41:32;97655.38;;;15.34;69.52
72428;BME280;60419;48.880;18.036;2023-10-31T11:44:18;97652.84;;;15.18;71.17
72428;BME280;60419;48.880;18.036;2023-10-31T11:47:15;97651.44;;;14.48;75.51
72428;BME280;60419;48.880;18.036;2023-10-31T11:50:02;97639.25;;;15.18;73.28
72428;BME280;60419;48.880;18.036;2023-10-31T11:53:05;97640.78;;;15.83;71.59
72428;BME280;60419;48.880;18.036;2023-10-31T11:55:51;97649.47;;;15.96;70.78
72428;BME280;60419;48.880;18.036;2023-10-31T11:58:41;97650.31;;;15.66;72.55
72428;BME280;60419;48.880;18.036;2023-10-31T12:01:28;97639.66;;;15.54;73.80
72428;BME280;60419;48.880;18.036;2023-10-31T12:04:23;97621.38;;;15.88;72.91
72428;BME280;60419;48.880;18.036;2023-10-31T12:07:08;97629.78;;;15.76;73.07
72428;BME280;60419;48.880;18.036;2023-10-31T12:09:54;97625.88;;;16.11;71.80
72428;BME280;60419;48.880;18.036;2023-10-31T12:12:39;97608.44;;;16.22;70.56
72428;BME280;60419;48.880;18.036;2023-10-31T12:15:25;97606.53;;;16.26;71.96
72428;BME280;60419;48.880;18.036;2023-10-31T12:18:10;97620.72;;;16.50;69.56
72428;BME280;60419;48.880;18.036;2023-10-31T12:20:56;97626.03;;;16.36;69.64
72428;BME280;60419;48.880;18.036;2023-10-31T12:23:41;97642.63;;;16.16;70.76
72428;BME280;60419;48.880;18.036;2023-10-31T12:26:27;97643.13;;;15.84;72.53
72428;BME280;60419;48.880;18.036;2023-10-31T12:32:02;97646.31;;;15.23;76.83
72428;BME280;60419;48.880;18.036;2023-10-31T12:34:48;97658.59;;;15.43;74.61
72428;BME280;60419;48.880;18.036;2023-10-31T12:37:35;97670.19;;;14.80;77.07
72428;BME280;60419;48.880;18.036;2023-10-31T12:40:21;97686.28;;;13.96;80.12
72428;BME280;60419;48.880;18.036;2023-10-31T12:43:07;97699.03;;;13.73;82.06
72428;BME280;60419;48.880;18.036;2023-10-31T12:45:53;97707.59;;;13.75;82.71
72428;BME280;60419;48.880;18.036;2023-10-31T12:48:38;97715.16;;;13.46;84.18
72428;BME280;60419;48.880;18.036;2023-10-31T12:51:24;97711.00;;;13.33;84.51
72428;BME280;60419;48.880;18.036;2023-10-31T12:54:10;97726.88;;;13.15;86.81
72428;BME280;60419;48.880;18.036;2023-10-31T12:56:59;97733.94;;;12.84;89.31
72428;BME280;60419;48.880;18.036;2023-10-31T12:59:45;97726.94;;;12.99;89.67
72428;BME280;60419;48.880;18.036;2023-10-31T13:02:30;97714.97;;;13.19;89.23
72428;BME280;60419;48.880;18.036;2023-10-31T13:05:15;97706.56;;;13.44;87.69
72428;BME280;60419;48.880;18.036;2023-10-31T13:08:01;97727.22;;;13.29;88.16
72428;BME280;60419;48.880;18.036;2023-10-31T13:10:49;97732.03;;;13.20;89.13
72428;BME280;60419;48.880;18.036;2023-10-31T13:13:35;97739.34;;;12.84;90.73
72428;BME280;60419;48.880;18.036;2023-10-31T13:16:20;97716.44;;;12.82;91.70
72428;BME280;60419;48.880;18.036;2023-10-31T13:19:06;97702.13;;;12.81;92.74
72428;BME280;60419;48.880;18.036;2023-10-31T13:21:51;97719.50;;;12.96;92.59
72428;BME280;60419;48.880;18.036;2023-10-31T13:24:36;97696.56;;;13.09;91.48
72428;BME280;60419;48.880;18.036;2023-10-31T13:27:22;97679.09;;;13.65;87.46
72428;BME280;60419;48.880;18.036;2023-10-31T13:30:07;97716.78;;;13.51;87.65
72428;BME280;60419;48.880;18.036;2023-10-31T13:32:53;97726.59;;;13.00;88.20
72428;BME280;60419;48.880;18.036;2023-10-31T13:35:38;97719.03;;;12.59;89.35
72428;BME280;60419;48.880;18.036;2023-10-31T13:38:23;97742.50;;;12.23;91.23
72428;BME280;60419;48.880;18.036;2023-10-31T13:41:09;97760.13;;;12.17;92.73
72428;BME280;60419;48.880;18.036;2023-10-31T13:43:55;97758.47;;;11.84;89.05
72428;BME280;60419;48.880;18.036;2023-10-31T13:46:40;97754.81;;;11.92;86.21
72428;BME280;60419;48.880;18.036;2023-10-31T13:49:26;97765.28;;;12.22;83.75
72428;BME280;60419;48.880;18.036;2023-10-31T13:52:11;97785.13;;;11.98;82.13
72428;BME280;60419;48.880;18.036;2023-10-31T13:54:57;97796.09;;;11.89;82.64
72428;BME280;60419;48.880;18.036;2023-10-31T13:57:42;97791.41;;;11.74;82.83
72428;BME280;60419;48.880;18.036;2023-10-31T14:00:28;97783.44;;;11.65;82.81
72428;BME280;60419;48.880;18.036;2023-10-31T14:03:14;97791.66;;;11.68;83.28
72428;BME280;60419;48.880;18.036;2023-10-31T14:06:01;97791.88;;;11.76;84.05
72428;BME280;60419;48.880;18.036;2023-10-31T14:08:46;97795.94;;;11.69;83.71
72428;BME280;60419;48.880;18.036;2023-10-31T14:11:31;97774.78;;;12.16;82.13
72428;BME280;60419;48.880;18.036;2023-10-31T14:14:17;97776.94;;;12.10;83.98
72428;BME280;60419;48.880;18.036;2023-10-31T14:17:03;97775.22;;;12.18;83.98
72428;BME280;60419;48.880;18.036;2023-10-31T14:19:50;97793.63;;;12.12;83.83
72428;BME280;60419;48.880;18.036;2023-10-31T14:22:35;97764.56;;;12.09;84.85
72428;BME280;60419;48.880;18.036;2023-10-31T14:25:20;97747.97;;;12.10;82.34
72428;BME280;60419;48.880;18.036;2023-10-31T14:28:06;97753.19;;;12.47;82.60
72428;BME280;60419;48.880;18.036;2023-10-31T14:30:51;97744.63;;;12.61;82.23
72428;BME280;60419;48.880;18.036;2023-10-31T14:33:37;97750.13;;;12.81;79.30